Home   Weather   USA   Evanston   Past weeks
Flag for USA

Past Weather in Evanston, Illinois, USA — Yesterday and Last 2 Weeks

Currently: 50 °F. Low clouds. (Weather station: Pal-Waukee Airport, USA). See more current weather

Past Weather in Evanston — Graph

°F

Evanston Temperature Yesterday

Maximum temperature yesterday: 53 °F (at 2:52 pm)
Minimum temperature yesterday: 30 °F (at 5:52 am)
Average temperature yesterday: 41 °F

High & Low Weather Summary for the Past Weeks

 TemperatureHumidityPressure
High53 °F (Feb 27, 2:52 pm)97% (Feb 21, 7:28 pm)30.58 "Hg (Feb 21, 7:28 pm)
Low-5 °F (Feb 14, 3:52 am)35% (Feb 26, 1:52 pm)29.59 "Hg (Feb 23, 12:52 am)
Average23 °F71%30.16 "Hg
* Reported Feb 13 11:52 am — Feb 28 11:52 am, Evanston. Weather by CustomWeather, © 2021

Note: Actual official high and low records may vary slightly from our data, if they occured in-between our weather recording intervals... More about our weather records

Evanston Weather History for the Previous 24 Hours

Scroll right to see more
 ConditionsComfort  
Time TempWeatherWind HumidityBarometerVisibility
11:52 am
Sun, Feb 28
50 °FLow clouds.13 mph89%29.71 "Hg10 mi
10:52 am49 °FLow clouds.12 mph93%29.72 "Hg10 mi
10:24 am48 °FFog.10 mph93%29.72 "Hg6 mi
10:08 am46 °FFog.6 mph96%29.73 "Hg1 mi
9:52 am45 °FFog.6 mph97%29.74 "Hg1 mi
8:52 am43 °FFog.6 mph93%29.75 "Hg1 mi
7:52 am39 °FFog.3 mph96%29.77 "Hg1 mi
7:38 am39 °FFog.3 mph96%29.76 "Hg1 mi
7:09 am39 °FFog.No wind96%29.76 "Hg1 mi
6:52 am40 °FFog.5 mph89%29.77 "Hg2 mi
5:52 am40 °FFog.3 mph93%29.79 "Hg4 mi
5:16 am40 °FFog.6 mph93%29.80 "Hg4 mi
4:59 am40 °FFog.6 mph89%29.81 "Hg2 mi
4:33 am40 °FFog.5 mph89%29.82 "Hg5 mi
4:12 am40 °FFog.No wind89%29.83 "Hg5 mi
3:52 am40 °FFog.No wind89%29.85 "Hg5 mi
2:52 am40 °FFog.6 mph86%29.89 "Hg5 mi
1:52 am40 °FFog.No wind89%29.93 "Hg6 mi
12:52 am39 °FFog.6 mph89%29.97 "Hg5 mi
11:52 pm
Sat, Feb 27
39 °FFog.No wind93%29.99 "Hg5 mi
10:52 pm37 °FFog.3 mph89%30.04 "Hg4 mi
9:52 pm42 °FClear.5 mph82%30.05 "Hg6 mi
8:52 pm43 °FClear.7 mph82%30.05 "Hg7 mi
7:52 pm42 °FClear.5 mph79%30.07 "Hg8 mi
6:52 pm43 °FClear.6 mph74%30.08 "Hg10 mi
5:52 pm45 °FClear.7 mph65%30.08 "Hg10 mi
4:52 pm52 °FSunny.5 mph47%30.07 "Hg10 mi
3:52 pm52 °FSunny.7 mph50%30.06 "Hg10 mi
2:52 pm53 °FSunny.7 mph47%30.06 "Hg10 mi
1:52 pm52 °FSunny.5 mph47%30.06 "Hg10 mi
Weather by CustomWeather, © 2021

See weather overview